sensor_id;sensor_type;location;lat;lon;timestamp;P1;durP1;ratioP1;P2;durP2;ratioP2
5787;SDS011;2920;48.158;12.254;2023-05-10T00:02:16;0.88;;;0.88;;
5787;SDS011;2920;48.158;12.254;2023-05-10T00:04:41;2.08;;;1.33;;
5787;SDS011;2920;48.158;12.254;2023-05-10T00:07:06;1.05;;;0.75;;
5787;SDS011;2920;48.158;12.254;2023-05-10T00:09:32;2.33;;;1.10;;
5787;SDS011;2920;48.158;12.254;2023-05-10T00:11:57;2.15;;;1.00;;
5787;SDS011;2920;48.158;12.254;2023-05-10T00:14:23;1.27;;;1.02;;
5787;SDS011;2920;48.158;12.254;2023-05-10T00:16:48;1.20;;;1.10;;
5787;SDS011;2920;48.158;12.254;2023-05-10T00:19:13;1.55;;;1.20;;
5787;SDS011;2920;48.158;12.254;2023-05-10T00:21:39;1.10;;;0.98;;
5787;SDS011;2920;48.158;12.254;2023-05-10T00:24:04;2.35;;;1.20;;
5787;SDS011;2920;48.158;12.254;2023-05-10T00:26:30;1.25;;;1.10;;
5787;SDS011;2920;48.158;12.254;2023-05-10T00:28:55;2.97;;;1.40;;
5787;SDS011;2920;48.158;12.254;2023-05-10T00:31:21;2.22;;;1.45;;
5787;SDS011;2920;48.158;12.254;2023-05-10T00:33:47;1.38;;;1.27;;
5787;SDS011;2920;48.158;12.254;2023-05-10T00:36:12;1.50;;;1.40;;
5787;SDS011;2920;48.158;12.254;2023-05-10T00:38:37;1.20;;;1.10;;
5787;SDS011;2920;48.158;12.254;2023-05-10T00:41:03;2.35;;;1.25;;
5787;SDS011;2920;48.158;12.254;2023-05-10T00:43:28;1.80;;;1.10;;
5787;SDS011;2920;48.158;12.254;2023-05-10T00:45:54;1.27;;;1.05;;
5787;SDS011;2920;48.158;12.254;2023-05-10T00:48:19;3.05;;;1.17;;
5787;SDS011;2920;48.158;12.254;2023-05-10T00:50:45;2.28;;;1.15;;
5787;SDS011;2920;48.158;12.254;2023-05-10T00:53:11;1.67;;;1.30;;
5787;SDS011;2920;48.158;12.254;2023-05-10T00:55:37;2.70;;;1.15;;
5787;SDS011;2920;48.158;12.254;2023-05-10T00:58:02;0.93;;;0.93;;
5787;SDS011;2920;48.158;12.254;2023-05-10T01:00:28;1.30;;;1.00;;
5787;SDS011;2920;48.158;12.254;2023-05-10T01:02:54;1.58;;;1.10;;
5787;SDS011;2920;48.158;12.254;2023-05-10T01:05:19;1.90;;;1.00;;
5787;SDS011;2920;48.158;12.254;2023-05-10T01:07:45;0.85;;;0.85;;
5787;SDS011;2920;48.158;12.254;2023-05-10T01:10:10;2.55;;;1.10;;
5787;SDS011;2920;48.158;12.254;2023-05-10T01:12:37;1.67;;;1.02;;
5787;SDS011;2920;48.158;12.254;2023-05-10T01:15:04;1.63;;;1.17;;
5787;SDS011;2920;48.158;12.254;2023-05-10T01:17:30;3.17;;;1.20;;
5787;SDS011;2920;48.158;12.254;2023-05-10T01:19:56;1.85;;;1.25;;
5787;SDS011;2920;48.158;12.254;2023-05-10T01:22:36;1.48;;;1.00;;
5787;SDS011;2920;48.158;12.254;2023-05-10T01:28:32;1.65;;;1.08;;
5787;SDS011;2920;48.158;12.254;2023-05-10T01:31:17;1.63;;;1.10;;
5787;SDS011;2920;48.158;12.254;2023-05-10T01:33:47;0.75;;;0.70;;
5787;SDS011;2920;48.158;12.254;2023-05-10T01:36:27;1.27;;;0.98;;
5787;SDS011;2920;48.158;12.254;2023-05-10T01:39:11;2.35;;;0.85;;
5787;SDS011;2920;48.158;12.254;2023-05-10T01:41:49;0.85;;;0.85;;
5787;SDS011;2920;48.158;12.254;2023-05-10T01:44:18;0.85;;;0.85;;
5787;SDS011;2920;48.158;12.254;2023-05-10T01:46:49;0.90;;;0.85;;
5787;SDS011;2920;48.158;12.254;2023-05-10T01:49:23;0.95;;;0.75;;
5787;SDS011;2920;48.158;12.254;2023-05-10T01:51:51;1.52;;;0.90;;
5787;SDS011;2920;48.158;12.254;2023-05-10T01:54:20;0.93;;;0.90;;
5787;SDS011;2920;48.158;12.254;2023-05-10T01:56:47;1.35;;;1.00;;
5787;SDS011;2920;48.158;12.254;2023-05-10T01:59:18;1.00;;;0.73;;
5787;SDS011;2920;48.158;12.254;2023-05-10T02:01:44;1.02;;;0.90;;
5787;SDS011;2920;48.158;12.254;2023-05-10T02:04:10;1.83;;;0.85;;
5787;SDS011;2920;48.158;12.254;2023-05-10T02:06:36;1.15;;;1.00;;
5787;SDS011;2920;48.158;12.254;2023-05-10T02:09:03;1.13;;;1.00;;
5787;SDS011;2920;48.158;12.254;2023-05-10T02:11:28;2.67;;;1.00;;
5787;SDS011;2920;48.158;12.254;2023-05-10T02:13:54;1.42;;;1.15;;
5787;SDS011;2920;48.158;12.254;2023-05-10T02:16:20;0.85;;;0.77;;
5787;SDS011;2920;48.158;12.254;2023-05-10T02:18:48;0.70;;;0.70;;
5787;SDS011;2920;48.158;12.254;2023-05-10T02:21:14;1.35;;;1.00;;
5787;SDS011;2920;48.158;12.254;2023-05-10T02:23:40;1.67;;;1.08;;
5787;SDS011;2920;48.158;12.254;2023-05-10T02:26:06;2.78;;;0.80;;
5787;SDS011;2920;48.158;12.254;2023-05-10T02:28:31;0.70;;;0.70;;
5787;SDS011;2920;48.158;12.254;2023-05-10T02:30:57;1.15;;;0.88;;
5787;SDS011;2920;48.158;12.254;2023-05-10T02:33:22;1.48;;;0.80;;
5787;SDS011;2920;48.158;12.254;2023-05-10T02:35:48;2.83;;;0.50;;
5787;SDS011;2920;48.158;12.254;2023-05-10T02:38:15;1.23;;;0.90;;
5787;SDS011;2920;48.158;12.254;2023-05-10T02:40:41;1.35;;;1.00;;
5787;SDS011;2920;48.158;12.254;2023-05-10T02:43:07;0.70;;;0.70;;
5787;SDS011;2920;48.158;12.254;2023-05-10T02:45:34;1.48;;;1.08;;
5787;SDS011;2920;48.158;12.254;2023-05-10T02:48:00;1.52;;;1.00;;
5787;SDS011;2920;48.158;12.254;2023-05-10T02:50:27;0.82;;;0.82;;
5787;SDS011;2920;48.158;12.254;2023-05-10T02:52:54;0.93;;;0.82;;
5787;SDS011;2920;48.158;12.254;2023-05-10T02:55:25;2.15;;;0.85;;
5787;SDS011;2920;48.158;12.254;2023-05-10T02:57:58;0.90;;;0.80;;
5787;SDS011;2920;48.158;12.254;2023-05-10T03:00:25;1.30;;;0.90;;
5787;SDS011;2920;48.158;12.254;2023-05-10T03:02:51;0.70;;;0.70;;
5787;SDS011;2920;48.158;12.254;2023-05-10T03:05:16;1.23;;;0.68;;
5787;SDS011;2920;48.158;12.254;2023-05-10T03:07:42;0.93;;;0.70;;
5787;SDS011;2920;48.158;12.254;2023-05-10T03:10:07;1.25;;;0.55;;
5787;SDS011;2920;48.158;12.254;2023-05-10T03:12:37;1.38;;;0.80;;
5787;SDS011;2920;48.158;12.254;2023-05-10T03:15:33;0.95;;;0.88;;
5787;SDS011;2920;48.158;12.254;2023-05-10T03:18:09;0.90;;;0.60;;
5787;SDS011;2920;48.158;12.254;2023-05-10T03:20:45;0.47;;;0.47;;
5787;SDS011;2920;48.158;12.254;2023-05-10T03:23:17;1.48;;;0.73;;
5787;SDS011;2920;48.158;12.254;2023-05-10T03:25:47;2.63;;;0.90;;
5787;SDS011;2920;48.158;12.254;2023-05-10T03:28:14;1.98;;;0.60;;
5787;SDS011;2920;48.158;12.254;2023-05-10T03:30:40;2.25;;;0.60;;
5787;SDS011;2920;48.158;12.254;2023-05-10T03:33:06;2.55;;;1.00;;
5787;SDS011;2920;48.158;12.254;2023-05-10T03:35:32;0.40;;;0.40;;
5787;SDS011;2920;48.158;12.254;2023-05-10T03:37:57;0.57;;;0.57;;
5787;SDS011;2920;48.158;12.254;2023-05-10T03:40:22;1.23;;;0.60;;
5787;SDS011;2920;48.158;12.254;2023-05-10T03:42:48;0.82;;;0.68;;
5787;SDS011;2920;48.158;12.254;2023-05-10T03:45:14;1.05;;;0.65;;
5787;SDS011;2920;48.158;12.254;2023-05-10T03:47:40;1.30;;;0.70;;
5787;SDS011;2920;48.158;12.254;2023-05-10T03:50:05;1.75;;;0.70;;
5787;SDS011;2920;48.158;12.254;2023-05-10T03:52:31;0.22;;;0.22;;
5787;SDS011;2920;48.158;12.254;2023-05-10T03:54:57;1.25;;;0.50;;
5787;SDS011;2920;48.158;12.254;2023-05-10T03:57:22;0.73;;;0.60;;
5787;SDS011;2920;48.158;12.254;2023-05-10T03:59:47;0.77;;;0.50;;
5787;SDS011;2920;48.158;12.254;2023-05-10T04:02:12;0.73;;;0.73;;
5787;SDS011;2920;48.158;12.254;2023-05-10T04:04:38;0.77;;;0.77;;
5787;SDS011;2920;48.158;12.254;2023-05-10T04:07:03;0.63;;;0.63;;
5787;SDS011;2920;48.158;12.254;2023-05-10T04:09:28;0.65;;;0.65;;
5787;SDS011;2920;48.158;12.254;2023-05-10T04:11:54;0.93;;;0.93;;
5787;SDS011;2920;48.158;12.254;2023-05-10T04:14:19;1.13;;;0.60;;
5787;SDS011;2920;48.158;12.254;2023-05-10T04:16:44;0.70;;;0.70;;
5787;SDS011;2920;48.158;12.254;2023-05-10T04:19:10;0.80;;;0.80;;
5787;SDS011;2920;48.158;12.254;2023-05-10T04:21:36;0.85;;;0.60;;
5787;SDS011;2920;48.158;12.254;2023-05-10T04:24:01;0.85;;;0.77;;
5787;SDS011;2920;48.158;12.254;2023-05-10T04:26:26;1.30;;;0.63;;
5787;SDS011;2920;48.158;12.254;2023-05-10T04:28:52;1.20;;;0.90;;
5787;SDS011;2920;48.158;12.254;2023-05-10T04:31:17;1.10;;;0.80;;
5787;SDS011;2920;48.158;12.254;2023-05-10T04:33:42;1.75;;;0.93;;
5787;SDS011;2920;48.158;12.254;2023-05-10T04:36:07;0.60;;;0.57;;
5787;SDS011;2920;48.158;12.254;2023-05-10T04:38:33;0.75;;;0.73;;
5787;SDS011;2920;48.158;12.254;2023-05-10T04:41:08;1.58;;;0.80;;
5787;SDS011;2920;48.158;12.254;2023-05-10T04:43:35;1.00;;;0.80;;
5787;SDS011;2920;48.158;12.254;2023-05-10T04:46:01;2.30;;;0.80;;
5787;SDS011;2920;48.158;12.254;2023-05-10T04:48:26;0.90;;;0.90;;
5787;SDS011;2920;48.158;12.254;2023-05-10T04:50:52;1.95;;;1.08;;
5787;SDS011;2920;48.158;12.254;2023-05-10T04:53:17;0.73;;;0.60;;
5787;SDS011;2920;48.158;12.254;2023-05-10T04:55:42;1.92;;;0.90;;
5787;SDS011;2920;48.158;12.254;2023-05-10T04:58:08;1.30;;;0.85;;
5787;SDS011;2920;48.158;12.254;2023-05-10T05:00:33;1.60;;;0.70;;
5787;SDS011;2920;48.158;12.254;2023-05-10T05:02:59;0.52;;;0.52;;
5787;SDS011;2920;48.158;12.254;2023-05-10T05:05:24;1.05;;;0.70;;
5787;SDS011;2920;48.158;12.254;2023-05-10T05:07:50;1.90;;;0.60;;
5787;SDS011;2920;48.158;12.254;2023-05-10T05:10:15;1.38;;;0.98;;
5787;SDS011;2920;48.158;12.254;2023-05-10T05:12:41;1.65;;;0.88;;
5787;SDS011;2920;48.158;12.254;2023-05-10T05:15:06;0.85;;;0.60;;
5787;SDS011;2920;48.158;12.254;2023-05-10T05:17:34;1.35;;;0.90;;
5787;SDS011;2920;48.158;12.254;2023-05-10T05:19:59;1.08;;;0.95;;
5787;SDS011;2920;48.158;12.254;2023-05-10T05:22:24;1.48;;;0.68;;
5787;SDS011;2920;48.158;12.254;2023-05-10T05:24:53;0.73;;;0.73;;
5787;SDS011;2920;48.158;12.254;2023-05-10T05:27:19;0.88;;;0.70;;
5787;SDS011;2920;48.158;12.254;2023-05-10T05:29:47;1.52;;;0.77;;
5787;SDS011;2920;48.158;12.254;2023-05-10T05:32:12;1.63;;;1.08;;
5787;SDS011;2920;48.158;12.254;2023-05-10T05:34:37;0.70;;;0.60;;
5787;SDS011;2920;48.158;12.254;2023-05-10T05:37:03;3.10;;;0.98;;
5787;SDS011;2920;48.158;12.254;2023-05-10T05:39:28;0.82;;;0.70;;
5787;SDS011;2920;48.158;12.254;2023-05-10T05:41:54;0.70;;;0.60;;
5787;SDS011;2920;48.158;12.254;2023-05-10T05:44:19;0.43;;;0.43;;
5787;SDS011;2920;48.158;12.254;2023-05-10T05:46:45;1.02;;;0.80;;
5787;SDS011;2920;48.158;12.254;2023-05-10T05:49:10;0.50;;;0.50;;
5787;SDS011;2920;48.158;12.254;2023-05-10T05:51:35;1.13;;;0.90;;
5787;SDS011;2920;48.158;12.254;2023-05-10T05:54:00;0.63;;;0.63;;
5787;SDS011;2920;48.158;12.254;2023-05-10T05:56:26;0.60;;;0.60;;
5787;SDS011;2920;48.158;12.254;2023-05-10T05:58:51;0.68;;;0.60;;
5787;SDS011;2920;48.158;12.254;2023-05-10T06:01:17;0.50;;;0.50;;
5787;SDS011;2920;48.158;12.254;2023-05-10T06:03:42;0.47;;;0.47;;
5787;SDS011;2920;48.158;12.254;2023-05-10T06:06:07;0.82;;;0.73;;
5787;SDS011;2920;48.158;12.254;2023-05-10T06:08:33;0.65;;;0.60;;
5787;SDS011;2920;48.158;12.254;2023-05-10T06:10:59;0.57;;;0.57;;
5787;SDS011;2920;48.158;12.254;2023-05-10T06:13:24;0.60;;;0.60;;
5787;SDS011;2920;48.158;12.254;2023-05-10T06:15:53;0.50;;;0.50;;
5787;SDS011;2920;48.158;12.254;2023-05-10T06:18:19;1.27;;;0.55;;
5787;SDS011;2920;48.158;12.254;2023-05-10T06:20:44;1.20;;;0.57;;
5787;SDS011;2920;48.158;12.254;2023-05-10T06:23:09;0.90;;;0.55;;
5787;SDS011;2920;48.158;12.254;2023-05-10T06:25:35;0.30;;;0.30;;
5787;SDS011;2920;48.158;12.254;2023-05-10T06:28:00;0.20;;;0.20;;
5787;SDS011;2920;48.158;12.254;2023-05-10T06:30:26;0.55;;;0.50;;
5787;SDS011;2920;48.158;12.254;2023-05-10T06:32:53;0.50;;;0.50;;
5787;SDS011;2920;48.158;12.254;2023-05-10T06:35:18;0.63;;;0.50;;
5787;SDS011;2920;48.158;12.254;2023-05-10T06:37:44;0.43;;;0.43;;
5787;SDS011;2920;48.158;12.254;2023-05-10T06:40:09;0.60;;;0.60;;
5787;SDS011;2920;48.158;12.254;2023-05-10T06:42:35;0.60;;;0.60;;
5787;SDS011;2920;48.158;12.254;2023-05-10T06:45:00;1.80;;;0.68;;
5787;SDS011;2920;48.158;12.254;2023-05-10T06:47:25;0.80;;;0.80;;
5787;SDS011;2920;48.158;12.254;2023-05-10T06:49:50;0.75;;;0.75;;
5787;SDS011;2920;48.158;12.254;2023-05-10T06:52:16;0.50;;;0.50;;
5787;SDS011;2920;48.158;12.254;2023-05-10T06:54:41;6.68;;;0.77;;
5787;SDS011;2920;48.158;12.254;2023-05-10T06:57:06;0.80;;;0.80;;
5787;SDS011;2920;48.158;12.254;2023-05-10T06:59:32;0.98;;;0.85;;
5787;SDS011;2920;48.158;12.254;2023-05-10T07:01:57;1.08;;;1.00;;
5787;SDS011;2920;48.158;12.254;2023-05-10T07:04:22;0.77;;;0.77;;
5787;SDS011;2920;48.158;12.254;2023-05-10T07:06:48;4.80;;;1.00;;
5787;SDS011;2920;48.158;12.254;2023-05-10T07:09:14;0.80;;;0.80;;
5787;SDS011;2920;48.158;12.254;2023-05-10T07:11:39;1.40;;;0.88;;
5787;SDS011;2920;48.158;12.254;2023-05-10T07:14:05;1.50;;;1.30;;
5787;SDS011;2920;48.158;12.254;2023-05-10T07:16:30;1.90;;;1.10;;
5787;SDS011;2920;48.158;12.254;2023-05-10T07:18:55;1.15;;;1.05;;
5787;SDS011;2920;48.158;12.254;2023-05-10T07:21:21;1.55;;;1.20;;
5787;SDS011;2920;48.158;12.254;2023-05-10T07:23:48;1.42;;;1.25;;
5787;SDS011;2920;48.158;12.254;2023-05-10T07:26:14;1.70;;;1.25;;
5787;SDS011;2920;48.158;12.254;2023-05-10T07:28:40;3.40;;;1.20;;
5787;SDS011;2920;48.158;12.254;2023-05-10T07:31:05;1.20;;;1.10;;
5787;SDS011;2920;48.158;12.254;2023-05-10T07:33:31;1.52;;;1.15;;
5787;SDS011;2920;48.158;12.254;2023-05-10T07:35:56;2.45;;;1.33;;
5787;SDS011;2920;48.158;12.254;2023-05-10T07:38:21;2.10;;;1.30;;
5787;SDS011;2920;48.158;12.254;2023-05-10T07:40:47;2.03;;;1.20;;
5787;SDS011;2920;48.158;12.254;2023-05-10T07:43:12;1.50;;;1.40;;
5787;SDS011;2920;48.158;12.254;2023-05-10T07:45:38;1.80;;;1.50;;
5787;SDS011;2920;48.158;12.254;2023-05-10T07:48:03;1.38;;;1.20;;
5787;SDS011;2920;48.158;12.254;2023-05-10T07:50:28;1.65;;;1.30;;
5787;SDS011;2920;48.158;12.254;2023-05-10T07:52:54;4.68;;;1.63;;
5787;SDS011;2920;48.158;12.254;2023-05-10T07:55:19;1.88;;;1.60;;
5787;SDS011;2920;48.158;12.254;2023-05-10T07:57:46;2.13;;;1.17;;
5787;SDS011;2920;48.158;12.254;2023-05-10T08:00:12;1.80;;;1.50;;
5787;SDS011;2920;48.158;12.254;2023-05-10T08:02:38;2.97;;;1.42;;
5787;SDS011;2920;48.158;12.254;2023-05-10T08:05:03;1.48;;;1.38;;
5787;SDS011;2920;48.158;12.254;2023-05-10T08:07:30;2.97;;;1.38;;
5787;SDS011;2920;48.158;12.254;2023-05-10T08:09:55;3.90;;;1.77;;
5787;SDS011;2920;48.158;12.254;2023-05-10T08:12:20;1.90;;;1.50;;
5787;SDS011;2920;48.158;12.254;2023-05-10T08:14:46;1.50;;;1.40;;
5787;SDS011;2920;48.158;12.254;2023-05-10T08:17:11;2.85;;;1.75;;
5787;SDS011;2920;48.158;12.254;2023-05-10T08:19:37;2.72;;;1.90;;
5787;SDS011;2920;48.158;12.254;2023-05-10T08:22:02;3.13;;;1.90;;
5787;SDS011;2920;48.158;12.254;2023-05-10T08:24:27;2.58;;;1.40;;
5787;SDS011;2920;48.158;12.254;2023-05-10T08:26:53;2.67;;;1.75;;
5787;SDS011;2920;48.158;12.254;2023-05-10T08:29:18;2.25;;;1.80;;
5787;SDS011;2920;48.158;12.254;2023-05-10T08:31:43;3.85;;;2.05;;
5787;SDS011;2920;48.158;12.254;2023-05-10T08:34:09;2.03;;;1.60;;
5787;SDS011;2920;48.158;12.254;2023-05-10T08:36:34;3.28;;;2.33;;
5787;SDS011;2920;48.158;12.254;2023-05-10T08:38:59;1.98;;;1.60;;
5787;SDS011;2920;48.158;12.254;2023-05-10T08:41:25;3.25;;;2.28;;
5787;SDS011;2920;48.158;12.254;2023-05-10T08:43:53;2.25;;;1.73;;
5787;SDS011;2920;48.158;12.254;2023-05-10T08:46:19;2.30;;;2.10;;
5787;SDS011;2920;48.158;12.254;2023-05-10T08:48:46;3.13;;;1.92;;
5787;SDS011;2920;48.158;12.254;2023-05-10T08:51:13;2.55;;;2.10;;
5787;SDS011;2920;48.158;12.254;2023-05-10T08:53:40;10.13;;;2.03;;
5787;SDS011;2920;48.158;12.254;2023-05-10T08:56:05;3.22;;;1.90;;
5787;SDS011;2920;48.158;12.254;2023-05-10T08:58:31;2.30;;;1.90;;
5787;SDS011;2920;48.158;12.254;2023-05-10T09:00:56;3.00;;;1.90;;
5787;SDS011;2920;48.158;12.254;2023-05-10T09:03:22;2.58;;;1.98;;
5787;SDS011;2920;48.158;12.254;2023-05-10T09:05:48;3.22;;;2.10;;
5787;SDS011;2920;48.158;12.254;2023-05-10T09:08:13;2.60;;;2.10;;
5787;SDS011;2920;48.158;12.254;2023-05-10T09:10:41;2.70;;;2.00;;
5787;SDS011;2920;48.158;12.254;2023-05-10T09:13:08;2.90;;;1.90;;
5787;SDS011;2920;48.158;12.254;2023-05-10T09:15:35;3.95;;;1.70;;
5787;SDS011;2920;48.158;12.254;2023-05-10T09:18:00;3.20;;;2.28;;
5787;SDS011;2920;48.158;12.254;2023-05-10T09:20:27;3.25;;;2.08;;
5787;SDS011;2920;48.158;12.254;2023-05-10T09:22:52;2.33;;;2.05;;
5787;SDS011;2920;48.158;12.254;2023-05-10T09:25:18;2.83;;;2.10;;
5787;SDS011;2920;48.158;12.254;2023-05-10T09:27:44;2.38;;;2.00;;
5787;SDS011;2920;48.158;12.254;2023-05-10T09:30:11;2.30;;;1.90;;
5787;SDS011;2920;48.158;12.254;2023-05-10T09:32:48;2.67;;;1.88;;
5787;SDS011;2920;48.158;12.254;2023-05-10T09:35:14;4.63;;;2.17;;
5787;SDS011;2920;48.158;12.254;2023-05-10T09:37:42;2.20;;;1.65;;
5787;SDS011;2920;48.158;12.254;2023-05-10T09:40:18;5.70;;;1.85;;
5787;SDS011;2920;48.158;12.254;2023-05-10T09:45:31;2.60;;;1.88;;
5787;SDS011;2920;48.158;12.254;2023-05-10T09:47:58;3.30;;;2.10;;
5787;SDS011;2920;48.158;12.254;2023-05-10T09:50:24;5.43;;;2.28;;
5787;SDS011;2920;48.158;12.254;2023-05-10T09:55:17;3.33;;;2.10;;
5787;SDS011;2920;48.158;12.254;2023-05-10T09:57:45;3.78;;;2.08;;
5787;SDS011;2920;48.158;12.254;2023-05-10T10:00:11;3.22;;;2.67;;
5787;SDS011;2920;48.158;12.254;2023-05-10T10:02:42;5.00;;;2.72;;
5787;SDS011;2920;48.158;12.254;2023-05-10T10:05:08;4.22;;;2.72;;
5787;SDS011;2920;48.158;12.254;2023-05-10T10:07:33;3.03;;;2.30;;
5787;SDS011;2920;48.158;12.254;2023-05-10T10:09:59;2.30;;;2.10;;
5787;SDS011;2920;48.158;12.254;2023-05-10T10:12:25;3.83;;;2.15;;
5787;SDS011;2920;48.158;12.254;2023-05-10T10:14:50;3.20;;;2.53;;
5787;SDS011;2920;48.158;12.254;2023-05-10T10:17:16;6.18;;;2.72;;
5787;SDS011;2920;48.158;12.254;2023-05-10T10:19:42;2.25;;;1.95;;
5787;SDS011;2920;48.158;12.254;2023-05-10T10:22:07;6.82;;;2.55;;
5787;SDS011;2920;48.158;12.254;2023-05-10T10:24:33;4.22;;;3.10;;
5787;SDS011;2920;48.158;12.254;2023-05-10T10:27:01;3.97;;;2.63;;
5787;SDS011;2920;48.158;12.254;2023-05-10T10:29:48;4.50;;;2.70;;
5787;SDS011;2920;48.158;12.254;2023-05-10T10:34:51;3.67;;;2.88;;
5787;SDS011;2920;48.158;12.254;2023-05-10T10:37:17;2.85;;;2.10;;
5787;SDS011;2920;48.158;12.254;2023-05-10T10:39:42;3.33;;;2.67;;
5787;SDS011;2920;48.158;12.254;2023-05-10T10:42:07;3.53;;;2.42;;
5787;SDS011;2920;48.158;12.254;2023-05-10T10:49:25;3.33;;;2.80;;
5787;SDS011;2920;48.158;12.254;2023-05-10T10:54:41;2.75;;;2.42;;
5787;SDS011;2920;48.158;12.254;2023-05-10T10:57:13;3.00;;;2.70;;
5787;SDS011;2920;48.158;12.254;2023-05-10T10:59:43;2.65;;;2.20;;
5787;SDS011;2920;48.158;12.254;2023-05-10T11:05:00;3.97;;;2.97;;
5787;SDS011;2920;48.158;12.254;2023-05-10T11:07:34;2.88;;;2.30;;
5787;SDS011;2920;48.158;12.254;2023-05-10T11:10:03;3.40;;;2.60;;
5787;SDS011;2920;48.158;12.254;2023-05-10T11:12:29;2.55;;;2.17;;
5787;SDS011;2920;48.158;12.254;2023-05-10T11:14:56;2.63;;;2.10;;
5787;SDS011;2920;48.158;12.254;2023-05-10T11:17:29;2.90;;;2.10;;
5787;SDS011;2920;48.158;12.254;2023-05-10T11:20:11;6.45;;;2.72;;
5787;SDS011;2920;48.158;12.254;2023-05-10T11:22:54;1.90;;;1.80;;
5787;SDS011;2920;48.158;12.254;2023-05-10T11:25:19;2.30;;;1.80;;
5787;SDS011;2920;48.158;12.254;2023-05-10T11:27:48;1.42;;;1.33;;
5787;SDS011;2920;48.158;12.254;2023-05-10T11:30:14;1.30;;;0.90;;
5787;SDS011;2920;48.158;12.254;2023-05-10T11:32:39;1.10;;;1.00;;
5787;SDS011;2920;48.158;12.254;2023-05-10T11:35:09;2.28;;;1.00;;
5787;SDS011;2920;48.158;12.254;2023-05-10T11:40:00;1.38;;;0.80;;
5787;SDS011;2920;48.158;12.254;2023-05-10T11:42:27;0.57;;;0.57;;
5787;SDS011;2920;48.158;12.254;2023-05-10T11:44:52;0.70;;;0.70;;
5787;SDS011;2920;48.158;12.254;2023-05-10T11:47:18;0.60;;;0.60;;
5787;SDS011;2920;48.158;12.254;2023-05-10T11:49:43;0.40;;;0.40;;
5787;SDS011;2920;48.158;12.254;2023-05-10T11:52:09;0.68;;;0.68;;
5787;SDS011;2920;48.158;12.254;2023-05-10T11:54:36;0.70;;;0.70;;
5787;SDS011;2920;48.158;12.254;2023-05-10T11:57:01;1.95;;;0.80;;
5787;SDS011;2920;48.158;12.254;2023-05-10T11:59:27;0.82;;;0.82;;
5787;SDS011;2920;48.158;12.254;2023-05-10T12:01:52;1.17;;;1.08;;
5787;SDS011;2920;48.158;12.254;2023-05-10T12:04:17;0.90;;;0.90;;
5787;SDS011;2920;48.158;12.254;2023-05-10T12:06:43;0.77;;;0.77;;
5787;SDS011;2920;48.158;12.254;2023-05-10T12:09:09;0.90;;;0.80;;
5787;SDS011;2920;48.158;12.254;2023-05-10T12:11:36;0.60;;;0.60;;
5787;SDS011;2920;48.158;12.254;2023-05-10T12:14:04;4.97;;;1.17;;
5787;SDS011;2920;48.158;12.254;2023-05-10T12:16:29;1.00;;;0.80;;
5787;SDS011;2920;48.158;12.254;2023-05-10T12:18:56;1.23;;;1.00;;
5787;SDS011;2920;48.158;12.254;2023-05-10T12:21:22;1.08;;;0.98;;
5787;SDS011;2920;48.158;12.254;2023-05-10T12:23:49;1.98;;;0.98;;
5787;SDS011;2920;48.158;12.254;2023-05-10T12:26:15;1.75;;;1.30;;
5787;SDS011;2920;48.158;12.254;2023-05-10T12:28:41;3.50;;;1.67;;
5787;SDS011;2920;48.158;12.254;2023-05-10T12:31:06;2.15;;;1.65;;
5787;SDS011;2920;48.158;12.254;2023-05-10T12:33:50;2.42;;;1.50;;
5787;SDS011;2920;48.158;12.254;2023-05-10T12:36:15;2.22;;;1.60;;
5787;SDS011;2920;48.158;12.254;2023-05-10T12:38:42;1.70;;;1.38;;
5787;SDS011;2920;48.158;12.254;2023-05-10T12:41:13;2.25;;;1.45;;
5787;SDS011;2920;48.158;12.254;2023-05-10T12:43:39;3.35;;;1.83;;
5787;SDS011;2920;48.158;12.254;2023-05-10T12:46:09;2.33;;;1.60;;
5787;SDS011;2920;48.158;12.254;2023-05-10T12:48:39;3.38;;;1.80;;
5787;SDS011;2920;48.158;12.254;2023-05-10T12:51:05;2.78;;;1.42;;
5787;SDS011;2920;48.158;12.254;2023-05-10T12:53:34;2.35;;;1.65;;
5787;SDS011;2920;48.158;12.254;2023-05-10T12:56:00;3.05;;;1.45;;
5787;SDS011;2920;48.158;12.254;2023-05-10T12:58:25;1.58;;;1.20;;
5787;SDS011;2920;48.158;12.254;2023-05-10T13:00:50;2.38;;;1.98;;
5787;SDS011;2920;48.158;12.254;2023-05-10T13:03:16;2.17;;;1.77;;
5787;SDS011;2920;48.158;12.254;2023-05-10T13:05:42;2.85;;;1.80;;
5787;SDS011;2920;48.158;12.254;2023-05-10T13:08:07;1.75;;;1.50;;
5787;SDS011;2920;48.158;12.254;2023-05-10T13:10:32;2.35;;;1.75;;
5787;SDS011;2920;48.158;12.254;2023-05-10T13:12:58;1.75;;;1.50;;
5787;SDS011;2920;48.158;12.254;2023-05-10T13:15:23;3.13;;;1.73;;
5787;SDS011;2920;48.158;12.254;2023-05-10T13:17:50;1.60;;;1.50;;
5787;SDS011;2920;48.158;12.254;2023-05-10T13:20:15;2.65;;;1.75;;
5787;SDS011;2920;48.158;12.254;2023-05-10T13:22:41;1.83;;;1.33;;
5787;SDS011;2920;48.158;12.254;2023-05-10T13:25:08;2.28;;;1.65;;
5787;SDS011;2920;48.158;12.254;2023-05-10T13:27:33;2.70;;;1.48;;
5787;SDS011;2920;48.158;12.254;2023-05-10T13:29:59;1.63;;;1.45;;
5787;SDS011;2920;48.158;12.254;2023-05-10T13:32:24;9.38;;;1.63;;
5787;SDS011;2920;48.158;12.254;2023-05-10T13:34:50;2.90;;;1.50;;
5787;SDS011;2920;48.158;12.254;2023-05-10T13:37:16;1.92;;;1.52;;
5787;SDS011;2920;48.158;12.254;2023-05-10T13:39:41;3.05;;;1.70;;
5787;SDS011;2920;48.158;12.254;2023-05-10T13:42:06;3.53;;;1.73;;
5787;SDS011;2920;48.158;12.254;2023-05-10T13:44:32;1.55;;;1.35;;
5787;SDS011;2920;48.158;12.254;2023-05-10T13:46:58;1.27;;;1.00;;
5787;SDS011;2920;48.158;12.254;2023-05-10T13:49:24;1.25;;;0.80;;
5787;SDS011;2920;48.158;12.254;2023-05-10T13:51:49;1.52;;;1.08;;
5787;SDS011;2920;48.158;12.254;2023-05-10T13:54:15;2.47;;;1.02;;
5787;SDS011;2920;48.158;12.254;2023-05-10T13:56:44;2.10;;;1.70;;
5787;SDS011;2920;48.158;12.254;2023-05-10T13:59:09;1.63;;;1.00;;
5787;SDS011;2920;48.158;12.254;2023-05-10T14:01:35;8.27;;;1.45;;
5787;SDS011;2920;48.158;12.254;2023-05-10T14:04:01;1.63;;;1.15;;
5787;SDS011;2920;48.158;12.254;2023-05-10T14:06:26;2.03;;;1.42;;
5787;SDS011;2920;48.158;12.254;2023-05-10T14:08:52;3.75;;;1.60;;
5787;SDS011;2920;48.158;12.254;2023-05-10T14:11:17;2.47;;;1.40;;
5787;SDS011;2920;48.158;12.254;2023-05-10T14:13:42;1.92;;;1.42;;
5787;SDS011;2920;48.158;12.254;2023-05-10T14:16:08;2.35;;;1.52;;
5787;SDS011;2920;48.158;12.254;2023-05-10T14:18:33;2.38;;;1.30;;
5787;SDS011;2920;48.158;12.254;2023-05-10T14:20:59;1.60;;;1.17;;
5787;SDS011;2920;48.158;12.254;2023-05-10T14:23:24;1.55;;;1.30;;
5787;SDS011;2920;48.158;12.254;2023-05-10T14:25:50;2.63;;;1.38;;
5787;SDS011;2920;48.158;12.254;2023-05-10T14:28:16;2.15;;;1.40;;
5787;SDS011;2920;48.158;12.254;2023-05-10T14:30:42;2.92;;;1.33;;
5787;SDS011;2920;48.158;12.254;2023-05-10T14:33:08;1.42;;;1.25;;
5787;SDS011;2920;48.158;12.254;2023-05-10T14:35:33;1.50;;;1.20;;
5787;SDS011;2920;48.158;12.254;2023-05-10T14:37:59;2.40;;;1.33;;
5787;SDS011;2920;48.158;12.254;2023-05-10T14:40:24;2.20;;;1.10;;
5787;SDS011;2920;48.158;12.254;2023-05-10T14:42:49;2.15;;;1.00;;
5787;SDS011;2920;48.158;12.254;2023-05-10T14:45:15;2.42;;;1.30;;
5787;SDS011;2920;48.158;12.254;2023-05-10T14:47:40;2.58;;;1.73;;
5787;SDS011;2920;48.158;12.254;2023-05-10T14:50:06;1.48;;;1.20;;
5787;SDS011;2920;48.158;12.254;2023-05-10T14:52:31;2.90;;;1.63;;
5787;SDS011;2920;48.158;12.254;2023-05-10T14:54:57;3.38;;;1.30;;
5787;SDS011;2920;48.158;12.254;2023-05-10T14:57:24;2.67;;;1.30;;
5787;SDS011;2920;48.158;12.254;2023-05-10T14:59:49;2.97;;;1.30;;
5787;SDS011;2920;48.158;12.254;2023-05-10T15:02:14;1.88;;;1.27;;
5787;SDS011;2920;48.158;12.254;2023-05-10T15:04:40;1.85;;;1.50;;
5787;SDS011;2920;48.158;12.254;2023-05-10T15:07:05;1.63;;;1.30;;
5787;SDS011;2920;48.158;12.254;2023-05-10T15:09:30;1.70;;;1.40;;
5787;SDS011;2920;48.158;12.254;2023-05-10T15:11:55;3.45;;;1.63;;
5787;SDS011;2920;48.158;12.254;2023-05-10T15:14:21;2.20;;;1.60;;
5787;SDS011;2920;48.158;12.254;2023-05-10T15:16:47;2.53;;;1.58;;
5787;SDS011;2920;48.158;12.254;2023-05-10T15:19:12;2.38;;;1.52;;
5787;SDS011;2920;48.158;12.254;2023-05-10T15:21:37;2.97;;;1.65;;